Hlavní strana
METAR-TAF:

METAR-TAF

Letiště :

Mezinárodní letiště Džinnáh

Karáčí, Pákistán

zeměpisná šířka: 24-54N, zeměpisná délka: 067-08E, výška: 21 m

Aktuální stav počasí

Zpráva byla vytvořena před 27 minutami, v 21:55 UTC
Severní vítr 4 kt
Teplota 14°C
Vlhkost vzduchu 51%
Tlak 1022 hPa
Viditelnost: 6000 m

METAR: OPKC 132155Z 01004KT 6000 NSC 14/04 Q1022 NOSIG

Čas: 03:22 (22:22 UTC)

Předpověď počasí

Zpráva byla vytvořena před 6 hodinami a 22 minutami, v 16:00 UTC
Předpověď platná od 13 v 18 UTC do 14 v 24 UTC
Severovýchodní vítr 10 kt
Viditelnost: 4000 m
zákal
Od UTC
Východoseverovýchodní vítr 10 kt s nárazy do 20 kt
Viditelnost: 6000 m
Od UTC
Východoseverovýchodní vítr 10 kt s nárazy do 20 kt
Viditelnost: 6000 m
Od UTC
Východoseverovýchodní vítr 5 kt s nárazy do 15 kt
Viditelnost: 5000 m
zákal

TAF: OPKC 131600Z 1318/1424 05010KT 4000 HZ NSC FM 140500Z 06010G20KT 6000 NSC FM 141800Z 06010G20KT 6000 NSC FM 141800Z 06005G15KT 5000 HZ NSC

Stav a předpovědi počasí z více než 4 000 letišť (zprávy METAR a TAF).

Červené a žluté tečky na mapě představují dostupné meteorologické stanice.

Když kurzor umístíte na tečku, zobrazí se název stanice.

Pak kliknutím zobrazíte stav a předpověď počasí.

Chcete-li změnit mapu, kliknutím na zelené tlačítko se znaménkem +mapu přiblížíte, kliknutím na zelené tlačítko se znaménkem – mapu oddálíte a kliknutím na zelené šipky přejdete na sousední mapy.


METAR-TAF: